createdAt,value
2023-01-30T00:01:30.543Z,99577.50
2023-01-30T00:03:57.714Z,99574.19
2023-01-30T00:06:25.371Z,99578.69
2023-01-30T00:09:01.991Z,99571.13
2023-01-30T00:11:36.651Z,99571.31
2023-01-30T00:14:06.315Z,99564.53
2023-01-30T00:16:37.419Z,99567.25
2023-01-30T00:19:07.427Z,99567.34
2023-01-30T00:21:40.241Z,99569.19
2023-01-30T00:24:08.009Z,99557.13
2023-01-30T00:26:35.412Z,99545.06
2023-01-30T00:29:02.988Z,99545.06
2023-01-30T00:31:31.678Z,99538.16
2023-01-30T00:33:59.185Z,99532.13
2023-01-30T00:36:27.180Z,99539.94
2023-01-30T00:38:57.941Z,99533.00
2023-01-30T00:41:45.291Z,99533.88
2023-01-30T00:44:31.308Z,99529.53
2023-01-30T00:47:08.890Z,99526.94
2023-01-30T00:49:37.895Z,99524.34
2023-01-30T00:52:05.709Z,99519.16
2023-01-30T00:54:33.585Z,99515.66
2023-01-30T00:57:01.270Z,99510.47
2023-01-30T00:59:28.717Z,99502.69
2023-01-30T01:01:56.178Z,99495.75
2023-01-30T01:04:23.725Z,99497.47
2023-01-30T01:06:51.695Z,99490.56
2023-01-30T01:09:20.085Z,99488.81
2023-01-30T01:11:47.447Z,99481.88
2023-01-30T01:14:14.987Z,99484.47
2023-01-30T01:16:42.340Z,99491.41
2023-01-30T01:19:09.659Z,99479.25
2023-01-30T01:21:36.888Z,99477.50
2023-01-30T01:24:07.175Z,99475.81
2023-01-30T01:26:34.886Z,99467.13
2023-01-30T01:29:03.345Z,99460.22
2023-01-30T01:31:31.107Z,99458.47
2023-01-30T01:33:58.733Z,99455.00
2023-01-30T01:39:13.709Z,99448.91
2023-01-30T01:41:41.167Z,99454.13
2023-01-30T01:44:10.986Z,99448.91
2023-01-30T01:46:59.640Z,99457.56
2023-01-30T01:49:34.995Z,99449.75
2023-01-30T01:52:13.864Z,99449.75
2023-01-30T01:54:56.190Z,99453.25
2023-01-30T01:57:33.852Z,99447.16
2023-01-30T02:00:12.504Z,99450.66
2023-01-30T02:02:47.128Z,99445.47
2023-01-30T02:05:18.050Z,99439.41
2023-01-30T02:08:18.275Z,99434.16
2023-01-30T02:10:54.581Z,99442.88
2023-01-30T02:13:22.371Z,99437.66
2023-01-30T02:15:50.534Z,99441.13
2023-01-30T02:18:19.256Z,99424.66
2023-01-30T02:21:21.099Z,99422.94
2023-01-30T02:24:17.396Z,99420.31
2023-01-30T02:26:44.548Z,99418.56
2023-01-30T02:30:05.999Z,99416.03
2023-01-30T02:33:09.094Z,99409.09
2023-01-30T02:36:05.947Z,99408.22
2023-01-30T02:39:02.893Z,99414.28
2023-01-30T02:41:49.246Z,99408.22
2023-01-30T02:44:30.601Z,99408.22
2023-01-30T02:47:08.577Z,99397.84
2023-01-30T02:49:42.623Z,99398.69
2023-01-30T02:52:12.984Z,99392.59
2023-01-30T02:54:40.855Z,99388.28
2023-01-30T02:57:24.962Z,99393.47
2023-01-30T02:59:58.815Z,99384.84
2023-01-30T03:02:44.948Z,99383.06
2023-01-30T03:05:31.289Z,99379.56
2023-01-30T03:08:14.601Z,99373.50
2023-01-30T03:11:01.679Z,99374.34
2023-01-30T03:13:41.667Z,99361.38
2023-01-30T03:16:22.226Z,99370.06
2023-01-30T03:18:53.107Z,99371.81
2023-01-30T03:21:20.518Z,99371.75
2023-01-30T03:23:48.244Z,99362.25
2023-01-30T03:26:25.212Z,99372.66
2023-01-30T03:28:53.527Z,99371.75
2023-01-30T03:31:20.942Z,99366.59
2023-01-30T03:33:48.174Z,99359.63
2023-01-30T03:36:15.837Z,99358.75
2023-01-30T03:38:43.222Z,99358.75
2023-01-30T03:41:10.939Z,99361.34
2023-01-30T03:43:39.824Z,99363.94
2023-01-30T03:46:06.919Z,99344.91
2023-01-30T03:48:34.457Z,99357.00
2023-01-30T03:51:01.720Z,99339.69
2023-01-30T03:53:29.881Z,99342.25
2023-01-30T03:55:57.382Z,99329.25
2023-01-30T07:57:06.500Z,99129.97
2023-01-30T07:59:32.767Z,99128.13
2023-01-30T08:02:00.017Z,99124.56
2023-01-30T08:04:37.702Z,99126.22
2023-01-30T08:07:17.682Z,99121.84
2023-01-30T08:09:48.427Z,99107.88
2023-01-30T08:12:23.384Z,99096.47
2023-01-30T08:14:54.760Z,99100.78
2023-01-30T08:17:28.217Z,99104.31
2023-01-30T08:20:01.521Z,99096.66
2023-01-30T08:22:33.035Z,99105.25
2023-01-30T08:25:08.569Z,99100.16
2023-01-30T08:27:39.900Z,99098.34
2023-01-30T08:30:11.796Z,99093.13
2023-01-30T08:32:39.225Z,99090.44
2023-01-30T08:35:07.232Z,99088.69
2023-01-30T08:37:35.680Z,99081.84
2023-01-30T08:40:03.335Z,99080.13
2023-01-30T08:42:31.631Z,99088.91
2023-01-30T08:45:00.336Z,99088.00
2023-01-30T08:47:40.499Z,99073.31
2023-01-30T08:50:17.476Z,99064.63
2023-01-30T08:52:48.162Z,99072.50
2023-01-30T08:55:25.735Z,99069.78
2023-01-30T08:58:04.973Z,99065.41
2023-01-30T09:00:39.184Z,99062.91
2023-01-30T09:03:11.713Z,99049.81
2023-01-30T09:05:50.136Z,99051.50
2023-01-30T09:08:26.474Z,99059.41
2023-01-30T09:11:05.707Z,99047.38
2023-01-30T09:13:35.350Z,99032.69
2023-01-30T09:16:04.766Z,99033.59
2023-01-30T09:18:34.570Z,99022.34
2023-01-30T09:21:07.673Z,99024.06
2023-01-30T09:23:39.824Z,99009.28
2023-01-30T09:26:13.717Z,99000.59
2023-01-30T09:28:43.537Z,98996.16
2023-01-30T09:31:15.695Z,98982.22
2023-01-30T09:33:50.697Z,98980.44
2023-01-30T09:36:24.309Z,98970.16
2023-01-30T09:38:56.996Z,98978.00
2023-01-30T09:41:33.342Z,98965.84
2023-01-30T09:44:13.033Z,98961.56
2023-01-30T09:46:47.289Z,98956.38
2023-01-30T09:49:31.188Z,98952.88
2023-01-30T09:52:04.784Z,98957.22
2023-01-30T09:54:40.030Z,98943.41
2023-01-30T09:57:27.314Z,98945.13
2023-01-30T10:00:02.218Z,98925.34
2023-01-30T10:02:51.608Z,98921.03
2023-01-30T10:05:20.493Z,98922.75
2023-01-30T10:08:22.094Z,98925.31
2023-01-30T10:11:09.688Z,98920.97
2023-01-30T10:14:16.795Z,98922.81
2023-01-30T10:17:04.681Z,98908.09
2023-01-30T10:20:05.333Z,98895.06
2023-01-30T10:22:44.490Z,98888.19
2023-01-30T10:25:56.610Z,98880.34
2023-01-30T10:28:45.742Z,98872.47
2023-01-30T10:31:21.902Z,98874.97
2023-01-30T10:34:04.276Z,98861.16
2023-01-30T10:37:11.693Z,98862.81
2023-01-30T10:40:15.312Z,98848.88
2023-01-30T10:42:51.785Z,98848.03
2023-01-30T10:45:28.897Z,98846.22
2023-01-30T10:48:17.298Z,98828.78
2023-01-30T10:51:17.871Z,98818.41
2023-01-30T10:53:50.849Z,98813.16
2023-01-30T10:56:44.120Z,98803.47
2023-01-30T10:59:48.894Z,98802.53
2023-01-30T11:02:26.004Z,98804.19
2023-01-30T11:05:00.129Z,98793.13
2023-01-30T11:07:34.765Z,98791.41
2023-01-30T11:10:02.818Z,98789.72
2023-01-30T11:12:30.863Z,98776.75
2023-01-30T11:15:04.806Z,98785.31
2023-01-30T11:17:37.780Z,98775.72
2023-01-30T11:20:13.985Z,98770.56
2023-01-30T11:23:05.478Z,98760.94
2023-01-30T11:26:10.146Z,98763.56
2023-01-30T11:28:45.926Z,98754.84
2023-01-30T11:31:40.731Z,98742.63
2023-01-30T11:34:16.463Z,98736.56
2023-01-30T11:36:47.654Z,98753.81
2023-01-30T11:39:16.657Z,98739.94
2023-01-30T16:01:21.783Z,98529.63
2023-01-30T16:03:58.660Z,98522.53
2023-01-30T16:06:37.147Z,98509.31
2023-01-30T16:09:26.700Z,98515.97
2023-01-30T16:11:58.060Z,98505.44
2023-01-30T16:14:32.013Z,98509.66
2023-01-30T16:17:06.205Z,98505.19
2023-01-30T16:19:37.614Z,98509.44
2023-01-30T16:22:17.313Z,98510.13
2023-01-30T16:24:48.038Z,98501.44
2023-01-30T16:27:32.351Z,98504.03
2023-01-30T16:30:16.707Z,98498.69
2023-01-30T16:32:44.014Z,98497.84
2023-01-30T16:35:27.521Z,98494.31
2023-01-30T16:37:57.779Z,98501.19
2023-01-30T16:40:31.027Z,98493.34
2023-01-30T16:43:03.111Z,98494.97
2023-01-30T16:45:36.302Z,98501.03
2023-01-30T16:48:25.584Z,98499.31
2023-01-30T16:50:58.384Z,98488.91
2023-01-30T16:53:27.351Z,98496.66
2023-01-30T16:56:09.869Z,98489.63
2023-01-30T16:58:38.732Z,98488.81
2023-01-30T17:01:08.795Z,98492.25
2023-01-30T17:03:39.173Z,98487.91
2023-01-30T17:06:16.507Z,98483.53
2023-01-30T17:08:48.717Z,98491.41
2023-01-30T17:11:38.959Z,98489.63
2023-01-30T17:14:31.730Z,98477.50
2023-01-30T17:17:04.462Z,98476.69
2023-01-30T17:19:31.571Z,98474.06
2023-01-30T17:22:01.398Z,98476.63
2023-01-30T17:24:29.122Z,98476.59
2023-01-30T17:27:02.757Z,98473.09
2023-01-30T17:29:46.777Z,98454.22
2023-01-30T17:32:16.041Z,98463.66
2023-01-30T17:34:43.182Z,98464.59
2023-01-30T17:37:20.450Z,98460.31
2023-01-30T17:39:48.405Z,98445.59
2023-01-30T17:42:22.345Z,98456.03
2023-01-30T17:44:51.067Z,98450.84
2023-01-30T17:47:18.545Z,98453.38
2023-01-30T17:49:45.490Z,98448.19
2023-01-30T17:52:14.132Z,98459.53
2023-01-30T17:54:40.988Z,98459.53
2023-01-30T17:57:10.340Z,98456.91
2023-01-30T17:59:37.270Z,98455.16
2023-01-30T18:02:04.399Z,98469.16
2023-01-30T18:04:31.661Z,98467.47
2023-01-30T18:07:06.514Z,98457.06
2023-01-30T18:09:34.752Z,98459.72
2023-01-30T18:12:02.517Z,98455.38
2023-01-30T18:14:29.912Z,98458.16
2023-01-30T18:17:00.491Z,98441.69
2023-01-30T18:19:31.580Z,98453.09
2023-01-30T18:21:58.686Z,98455.75
2023-01-30T18:24:26.186Z,98451.34
2023-01-30T18:26:53.575Z,98440.16
2023-01-30T18:29:20.716Z,98461.00
2023-01-30T18:31:47.838Z,98451.50
2023-01-30T18:34:14.958Z,98461.94
2023-01-30T18:36:42.997Z,98458.63
2023-01-30T18:39:17.508Z,98464.66
2023-01-30T18:41:44.589Z,98459.59
2023-01-30T18:44:11.473Z,98457.91
2023-01-30T18:46:41.762Z,98459.72
2023-01-30T18:49:09.275Z,98451.16
2023-01-30T18:51:36.124Z,98445.16
2023-01-30T18:54:03.288Z,98442.69
2023-01-30T18:56:32.728Z,98440.94
2023-01-30T18:59:04.552Z,98445.31
2023-01-30T19:01:34.797Z,98443.69
2023-01-30T19:04:08.066Z,98444.56
2023-01-30T19:06:37.965Z,98442.00
2023-01-30T19:09:09.493Z,98448.09
2023-01-30T19:11:58.373Z,98442.88
2023-01-30T19:14:25.332Z,98442.06
2023-01-30T19:16:53.157Z,98434.38
2023-01-30T19:19:20.250Z,98433.47
2023-01-30T19:21:49.879Z,98432.66
2023-01-30T19:24:31.050Z,98424.09
2023-01-30T19:26:59.720Z,98424.94
2023-01-30T19:29:26.834Z,98426.63
2023-01-30T19:31:54.015Z,98426.69
2023-01-30T19:34:21.570Z,98424.09
2023-01-30T19:36:48.509Z,98415.41
2023-01-30T19:39:16.037Z,98424.19
2023-01-30T19:41:49.743Z,98420.72
2023-01-30T19:44:16.863Z,98419.03
2023-01-30T19:46:44.405Z,98408.59
2023-01-30T19:49:13.272Z,98410.34
2023-01-30T22:21:38.770Z,98402.13
2023-01-30T22:24:07.960Z,98392.47
2023-01-30T22:26:34.480Z,98383.59
2023-01-30T22:29:10.138Z,98391.16
2023-01-30T22:31:41.823Z,98384.88
2023-01-30T22:34:10.294Z,98388.22
2023-01-30T22:36:39.574Z,98391.53
2023-01-30T22:39:08.088Z,98395.72
2023-01-30T22:41:39.904Z,98390.34
2023-01-30T22:44:12.635Z,98390.34
2023-01-30T22:46:42.132Z,98384.16
2023-01-30T22:49:10.659Z,98385.00
2023-01-30T22:51:40.534Z,98388.38
2023-01-30T22:54:11.593Z,98385.78
2023-01-30T22:56:45.095Z,98391.72
2023-01-30T22:59:13.188Z,98389.97
2023-01-30T23:01:43.727Z,98393.34
2023-01-30T23:04:18.771Z,98378.69
2023-01-30T23:06:47.337Z,98376.94
2023-01-30T23:09:19.420Z,98378.69
2023-01-30T23:12:12.787Z,98376.94
2023-01-30T23:14:41.161Z,98381.16
2023-01-30T23:17:27.909Z,98379.50
2023-01-30T23:19:56.099Z,98370.69
2023-01-30T23:22:23.989Z,98381.03
2023-01-30T23:24:52.766Z,98383.75
2023-01-30T23:27:21.809Z,98369.91
2023-01-30T23:29:49.922Z,98374.16
2023-01-30T23:32:20.257Z,98373.28
2023-01-30T23:34:48.304Z,98380.31
2023-01-30T23:37:16.490Z,98377.63
2023-01-30T23:39:45.278Z,98378.31
2023-01-30T23:42:13.163Z,98381.81
2023-01-30T23:44:42.094Z,98383.34
2023-01-30T23:47:10.676Z,98376.28
2023-01-30T23:49:39.824Z,98375.41
2023-01-30T23:52:08.634Z,98377.91
2023-01-30T23:54:36.346Z,98377.81
2023-01-30T23:57:03.933Z,98374.13
2023-01-30T23:59:31.156Z,98382.69
